createdAt,value
2023-04-01T00:01:14.218Z,8.70
2023-04-01T00:03:41.392Z,8.70
2023-04-01T00:06:09.879Z,8.70
2023-04-01T00:08:36.360Z,8.60
2023-04-01T00:11:02.833Z,8.50
2023-04-01T00:13:29.596Z,8.40
2023-04-01T00:15:57.575Z,8.40
2023-04-01T00:18:24.895Z,8.40
2023-04-01T00:20:52.340Z,8.40
2023-04-01T00:23:19.965Z,8.30
2023-04-01T00:25:48.201Z,8.40
2023-04-01T00:28:20.228Z,8.40
2023-04-01T00:30:48.116Z,8.40
2023-04-01T00:33:15.494Z,8.40
2023-04-01T00:35:42.222Z,8.30
2023-04-01T00:38:08.756Z,8.40
2023-04-01T00:40:40.500Z,8.30
2023-04-01T00:43:21.243Z,8.30
2023-04-01T00:45:49.635Z,8.10
2023-04-01T00:48:22.909Z,8.20
2023-04-01T00:51:08.347Z,8.20
2023-04-01T00:53:42.128Z,8.20
2023-04-01T00:56:31.680Z,8.20
2023-04-01T00:59:15.249Z,8.30
2023-04-01T01:01:42.025Z,8.20
2023-04-01T01:04:32.939Z,8.20
2023-04-01T01:08:25.595Z,8.20
2023-04-01T01:10:52.465Z,8.20
2023-04-01T01:13:40.674Z,8.20
2023-04-01T01:16:31.268Z,8.10
2023-04-01T01:20:49.234Z,8.20
2023-04-01T01:24:27.117Z,8.10
2023-04-01T01:31:16.965Z,8.10
2023-04-01T01:36:42.883Z,8.20
2023-04-01T01:39:11.169Z,8.20
2023-04-01T01:41:39.760Z,8.30
2023-04-01T01:44:09.950Z,8.30
2023-04-01T01:46:39.451Z,8.20
2023-04-01T01:49:10.661Z,8.20
2023-04-01T01:51:37.178Z,8.30
2023-04-01T01:54:03.734Z,8.20
2023-04-01T01:56:32.454Z,8.10
2023-04-01T01:59:10.235Z,8.00
2023-04-01T02:01:42.717Z,8.10
2023-04-01T02:04:11.470Z,8.00
2023-04-01T02:06:46.741Z,7.90
2023-04-01T02:09:13.600Z,8.00
2023-04-01T02:11:52.493Z,7.90
2023-04-01T02:14:28.655Z,8.00
2023-04-01T02:17:29.473Z,7.90
2023-04-01T02:20:20.918Z,7.90
2023-04-01T02:22:58.070Z,7.80
2023-04-01T02:25:35.009Z,7.70
2023-04-01T02:28:05.501Z,7.60
2023-04-01T02:30:36.226Z,7.60
2023-04-01T02:33:04.991Z,7.50
2023-04-01T02:35:34.344Z,7.50
2023-04-01T02:38:02.088Z,7.60
2023-04-01T02:40:28.579Z,7.60
2023-04-01T02:42:55.066Z,7.60
2023-04-01T02:45:21.789Z,7.60
2023-04-01T02:47:48.342Z,7.40
2023-04-01T02:50:15.791Z,7.30
2023-04-01T02:52:42.260Z,7.30
2023-04-01T02:55:09.591Z,7.20
2023-04-01T02:57:36.097Z,7.20
2023-04-01T03:00:04.102Z,7.20
2023-04-01T03:02:30.693Z,7.20
2023-04-01T03:04:57.226Z,7.10
2023-04-01T03:07:24.997Z,7.10
2023-04-01T03:09:51.484Z,7.10
2023-04-01T03:12:17.982Z,7.10
2023-04-01T03:14:44.449Z,7.00
2023-04-01T03:17:10.946Z,7.00
2023-04-01T03:19:37.430Z,6.90
2023-04-01T03:22:03.915Z,6.70
2023-04-01T03:24:30.402Z,6.60
2023-04-01T03:26:56.886Z,6.50
2023-04-01T03:29:23.395Z,6.50
2023-04-01T03:31:49.897Z,6.60
2023-04-01T03:34:16.362Z,6.60
2023-04-01T03:36:42.898Z,6.50
2023-04-01T03:39:09.380Z,6.50
2023-04-01T03:41:39.712Z,6.70
2023-04-01T03:44:06.462Z,6.90
2023-04-01T03:46:33.038Z,7.00
2023-04-01T03:48:59.509Z,6.90
2023-04-01T03:51:26.017Z,6.80
2023-04-01T03:53:52.524Z,6.60
2023-04-01T03:56:19.000Z,6.60
2023-04-01T03:58:45.614Z,6.50
2023-04-01T04:01:18.644Z,6.50
2023-04-01T04:03:46.000Z,6.60
2023-04-01T04:06:14.494Z,6.60
2023-04-01T04:08:41.135Z,6.70
2023-04-01T04:11:08.309Z,6.60
2023-04-01T04:13:36.102Z,6.60
2023-04-01T04:16:04.193Z,6.90
2023-04-01T04:18:30.763Z,6.90
2023-04-01T04:20:57.337Z,6.80
2023-04-01T04:23:24.747Z,6.60
2023-04-01T04:26:06.813Z,6.50
2023-04-01T04:28:33.802Z,6.40
2023-04-01T04:31:01.969Z,6.30
2023-04-01T04:33:28.705Z,6.20
2023-04-01T04:36:00.332Z,6.10
2023-04-01T04:38:27.735Z,6.20
2023-04-01T04:40:54.352Z,6.20
2023-04-01T04:43:21.622Z,6.10
2023-04-01T04:45:48.250Z,6.10
2023-04-01T04:48:18.721Z,6.10
2023-04-01T04:50:51.494Z,6.00
2023-04-01T04:53:19.767Z,6.00
2023-04-01T04:55:50.592Z,6.10
2023-04-01T04:58:17.759Z,6.20
2023-04-01T05:00:44.896Z,6.40
2023-04-01T05:03:12.889Z,6.30
2023-04-01T05:05:40.434Z,6.40
2023-04-01T05:08:07.347Z,6.30
2023-04-01T05:10:33.853Z,6.30
2023-04-01T05:13:00.387Z,6.30
2023-04-01T05:15:26.873Z,6.40
2023-04-01T05:17:53.377Z,6.30
2023-04-01T05:20:20.230Z,6.30
2023-04-01T05:22:46.809Z,6.30
2023-04-01T05:25:13.318Z,6.40
2023-04-01T05:27:39.868Z,6.50
2023-04-01T05:30:07.483Z,6.60
2023-04-01T05:32:34.064Z,6.60
2023-04-01T05:35:00.562Z,6.70
2023-04-01T05:37:27.050Z,6.70
2023-04-01T05:39:53.544Z,6.70
2023-04-01T05:42:20.196Z,6.70
2023-04-01T05:44:46.685Z,6.90
2023-04-01T05:47:13.187Z,7.00
2023-04-01T05:49:39.673Z,7.20
2023-04-01T05:52:06.163Z,7.30
2023-04-01T05:54:33.278Z,7.40
2023-04-01T05:56:59.901Z,7.60
2023-04-01T05:59:26.405Z,7.70
2023-04-01T06:01:53.334Z,7.90
2023-04-01T06:04:20.481Z,8.10
2023-04-01T06:06:47.024Z,8.30
2023-04-01T06:09:27.677Z,8.40
2023-04-01T06:12:57.536Z,8.50
2023-04-01T06:18:19.224Z,8.50
2023-04-01T06:24:16.306Z,8.60
2023-04-01T06:33:06.158Z,8.90
2023-04-01T06:35:59.781Z,9.40
2023-04-01T06:41:10.329Z,10.00
2023-04-01T06:47:08.410Z,10.50
2023-04-01T06:50:38.379Z,11.30
2023-04-01T06:53:22.524Z,11.90
2023-04-01T06:56:16.968Z,12.00
2023-04-01T06:59:34.984Z,11.90
2023-04-01T07:02:26.211Z,12.30
2023-04-01T07:04:57.770Z,12.70
2023-04-01T07:07:43.653Z,13.10
2023-04-01T07:11:05.686Z,13.50
2023-04-01T07:14:48.322Z,13.90
2023-04-01T07:17:57.426Z,14.30
2023-04-01T07:20:31.182Z,14.70
2023-04-01T07:23:03.702Z,15.00
2023-04-01T07:25:39.970Z,15.60
2023-04-01T07:28:13.745Z,15.70
2023-04-01T07:31:20.222Z,15.90
2023-04-01T07:34:16.188Z,15.80
2023-04-01T07:40:51.611Z,15.80
2023-04-01T07:46:38.415Z,15.80
2023-04-01T07:49:22.451Z,16.00
2023-04-01T07:52:06.739Z,15.70
2023-04-01T07:54:58.314Z,15.70
2023-04-01T07:59:10.318Z,15.80
2023-04-01T08:02:03.357Z,15.70
2023-04-01T08:07:15.685Z,15.70
2023-04-01T08:10:04.331Z,15.70
2023-04-01T08:16:01.764Z,15.70
2023-04-01T08:19:17.200Z,15.80
2023-04-01T08:21:54.893Z,15.90
2023-04-01T08:24:47.780Z,15.90
2023-04-01T08:28:29.894Z,15.90
2023-04-01T08:31:20.257Z,15.60
2023-04-01T08:33:49.283Z,15.30
2023-04-01T08:36:34.418Z,14.90
2023-04-01T08:39:19.557Z,14.70
2023-04-01T08:43:50.530Z,14.80
2023-04-01T08:51:08.627Z,15.00
2023-04-01T08:54:12.754Z,14.80
2023-04-01T08:58:45.014Z,15.10
2023-04-01T09:04:44.592Z,15.30
2023-04-01T09:09:46.950Z,15.60
2023-04-01T09:18:00.905Z,15.30
2023-04-01T09:21:36.623Z,15.70
2023-04-01T09:28:34.580Z,16.50
2023-04-01T09:31:31.940Z,16.70
2023-04-01T09:34:36.462Z,16.40
2023-04-01T09:40:05.473Z,16.30
2023-04-01T09:43:19.979Z,15.70
2023-04-01T09:46:26.573Z,15.40
2023-04-01T09:49:37.776Z,15.30
2023-04-01T09:55:41.536Z,15.10
2023-04-01T10:01:48.463Z,14.70
2023-04-01T10:07:56.899Z,14.90
2023-04-01T10:11:07.772Z,14.60
2023-04-01T10:18:48.178Z,14.90
2023-04-01T10:22:10.956Z,15.10
2023-04-01T10:25:11.125Z,15.30
2023-04-01T10:28:07.183Z,15.10
2023-04-01T10:34:09.416Z,15.10
2023-04-01T10:37:02.496Z,15.30
2023-04-01T10:40:49.134Z,15.50
2023-04-01T10:50:12.298Z,15.60
2023-04-01T10:54:45.061Z,16.00
2023-04-01T10:58:26.500Z,16.20
2023-04-01T11:05:20.921Z,16.30
2023-04-01T11:08:43.302Z,16.40
2023-04-01T11:17:26.254Z,16.10
2023-04-01T11:21:14.749Z,16.10
2023-04-01T11:25:00.872Z,16.00
2023-04-01T11:32:08.238Z,15.90
2023-04-01T11:39:23.934Z,15.70
2023-04-01T11:45:27.916Z,15.30
2023-04-01T11:49:48.747Z,15.80
2023-04-01T11:53:15.840Z,16.00
2023-04-01T12:04:12.861Z,16.10
2023-04-01T12:07:15.909Z,16.20
2023-04-01T12:10:26.497Z,16.00
2023-04-01T12:13:15.555Z,15.90
2023-04-01T12:19:07.119Z,16.00
2023-04-01T12:24:50.193Z,15.80
2023-04-01T12:31:26.522Z,15.70
2023-04-01T12:39:11.310Z,15.90
2023-04-01T12:44:39.968Z,15.90
2023-04-01T12:48:11.825Z,16.30
2023-04-01T12:53:26.838Z,16.10
2023-04-01T12:55:56.285Z,16.20
2023-04-01T13:02:06.443Z,16.40
2023-04-01T13:08:21.227Z,16.40
2023-04-01T13:14:25.047Z,16.60
2023-04-01T13:18:57.357Z,16.80
2023-04-01T13:24:31.457Z,17.00
2023-04-01T13:27:46.091Z,17.40
2023-04-01T13:30:40.499Z,17.40
2023-04-01T13:33:50.310Z,17.10
2023-04-01T13:37:40.381Z,17.30
2023-04-01T13:44:13.385Z,17.50
2023-04-01T13:47:34.029Z,17.40
2023-04-01T13:56:05.172Z,17.20
2023-04-01T14:01:58.260Z,17.20
2023-04-01T14:07:08.678Z,16.60
2023-04-01T14:10:55.471Z,16.90
2023-04-01T14:16:12.809Z,17.10
2023-04-01T14:20:03.661Z,17.10
2023-04-01T14:23:13.185Z,17.10
2023-04-01T14:28:40.004Z,17.30
2023-04-01T14:33:42.346Z,17.30
2023-04-01T14:40:22.372Z,17.40
2023-04-01T14:44:51.726Z,17.20
2023-04-01T14:50:35.562Z,17.10
2023-04-01T14:53:46.029Z,17.00
2023-04-01T14:56:12.789Z,17.10
2023-04-01T14:58:57.434Z,17.10
2023-04-01T15:03:12.851Z,17.20
2023-04-01T15:08:36.964Z,17.40
2023-04-01T15:16:15.802Z,17.60
2023-04-01T15:24:05.155Z,17.50
2023-04-01T15:28:53.169Z,17.20
2023-04-01T15:36:48.358Z,16.90
2023-04-01T15:44:30.412Z,16.90
2023-04-01T15:46:58.498Z,16.70
2023-04-01T15:50:43.080Z,16.30
2023-04-01T15:53:29.533Z,16.20
2023-04-01T15:58:05.975Z,16.10
2023-04-01T16:03:58.284Z,16.00
2023-04-01T16:07:41.218Z,16.10
2023-04-01T16:12:05.063Z,16.10
2023-04-01T16:20:08.044Z,16.00
2023-04-01T16:23:02.704Z,15.80
2023-04-01T16:25:47.658Z,15.70
2023-04-01T16:32:14.903Z,15.70
2023-04-01T16:41:01.076Z,15.50
2023-04-01T16:43:55.722Z,15.00
2023-04-01T16:47:33.406Z,14.70
2023-04-01T16:50:46.970Z,14.50
2023-04-01T16:54:28.898Z,14.30
2023-04-01T16:57:17.076Z,14.20
2023-04-01T17:00:55.242Z,14.20
2023-04-01T17:03:31.408Z,14.00
2023-04-01T17:06:40.347Z,13.80
2023-04-01T17:11:08.182Z,13.70
2023-04-01T17:15:40.437Z,13.50
2023-04-01T17:22:09.694Z,13.40
2023-04-01T17:25:31.505Z,13.40
2023-04-01T17:28:28.048Z,13.30
2023-04-01T17:34:46.417Z,13.10
2023-04-01T17:37:46.057Z,13.00
2023-04-01T17:42:02.995Z,12.90
2023-04-01T17:48:08.900Z,12.90
2023-04-01T17:53:37.205Z,12.80
2023-04-01T17:58:02.052Z,12.80
2023-04-01T18:01:43.325Z,13.00
2023-04-01T18:06:52.111Z,13.30
2023-04-01T18:12:19.870Z,13.20
2023-04-01T18:16:39.238Z,13.00
2023-04-01T18:21:46.809Z,12.90
2023-04-01T18:24:36.066Z,12.90
2023-04-01T18:27:43.481Z,12.90
2023-04-01T18:30:39.756Z,12.80
2023-04-01T18:33:30.001Z,12.70
2023-04-01T18:36:53.678Z,12.50
2023-04-01T18:39:49.266Z,12.30
2023-04-01T18:45:51.229Z,12.10
2023-04-01T18:49:39.679Z,12.00
2023-04-01T18:53:42.040Z,11.80
2023-04-01T18:56:25.851Z,11.80
2023-04-01T19:05:20.324Z,11.70
2023-04-01T19:07:53.841Z,11.70
2023-04-01T19:11:49.923Z,11.80
2023-04-01T19:18:18.076Z,11.80
2023-04-01T19:21:00.137Z,11.80
2023-04-01T19:24:36.890Z,11.50
2023-04-01T19:27:50.027Z,11.50
2023-04-01T19:30:56.635Z,11.50
2023-04-01T19:34:04.054Z,11.40
2023-04-01T19:37:11.969Z,11.50
2023-04-01T19:46:22.526Z,11.50
2023-04-01T19:50:49.635Z,11.40
2023-04-01T19:55:33.689Z,11.30
2023-04-01T20:00:44.674Z,11.10
2023-04-01T20:05:41.224Z,11.10
2023-04-01T20:10:10.352Z,11.20
2023-04-01T20:14:44.883Z,11.20
2023-04-01T20:18:25.523Z,11.10
2023-04-01T20:21:02.594Z,11.20
2023-04-01T20:23:50.216Z,11.20
2023-04-01T20:26:26.086Z,11.10
2023-04-01T20:29:59.361Z,11.10
2023-04-01T20:38:55.725Z,10.90
2023-04-01T20:47:24.622Z,10.70
2023-04-01T20:50:40.846Z,10.60
2023-04-01T20:56:26.976Z,10.50
2023-04-01T21:00:10.348Z,10.60
2023-04-01T21:05:52.924Z,10.50
2023-04-01T21:10:52.372Z,10.40
2023-04-01T21:14:26.703Z,10.30
2023-04-01T21:20:28.448Z,10.10
2023-04-01T21:25:36.902Z,10.00
2023-04-01T21:28:45.373Z,9.80
2023-04-01T21:34:56.510Z,9.60
2023-04-01T21:40:21.482Z,9.50
2023-04-01T21:44:22.604Z,10.00
2023-04-01T21:48:58.920Z,10.00
2023-04-01T21:52:24.099Z,9.90
2023-04-01T21:58:37.581Z,9.90
2023-04-01T22:01:57.784Z,9.60
2023-04-01T22:05:00.129Z,9.60
2023-04-01T22:10:38.630Z,9.80
2023-04-01T22:16:48.735Z,9.80
2023-04-01T22:21:08.556Z,9.90
2023-04-01T22:24:32.882Z,10.10
2023-04-01T22:27:25.254Z,9.90
2023-04-01T22:31:12.875Z,9.80
2023-04-01T22:37:14.556Z,9.90
2023-04-01T22:40:21.646Z,9.80
2023-04-01T22:43:06.526Z,9.80
2023-04-01T22:50:52.215Z,9.80
2023-04-01T22:54:32.038Z,9.90
2023-04-01T22:57:57.354Z,9.70
2023-04-01T23:00:50.593Z,9.40
2023-04-01T23:03:32.434Z,9.20
2023-04-01T23:06:02.629Z,9.10
2023-04-01T23:12:03.888Z,9.10
2023-04-01T23:15:01.345Z,8.90
2023-04-01T23:19:05.415Z,8.80
2023-04-01T23:21:45.448Z,8.60
2023-04-01T23:24:36.847Z,8.50
2023-04-01T23:27:17.942Z,8.60
2023-04-01T23:29:44.524Z,8.70
2023-04-01T23:32:22.561Z,8.80
2023-04-01T23:34:57.208Z,8.80
2023-04-01T23:37:25.272Z,8.70
2023-04-01T23:39:58.517Z,8.60
2023-04-01T23:42:40.678Z,8.60
2023-04-01T23:45:20.129Z,8.60
2023-04-01T23:47:50.616Z,8.80
2023-04-01T23:50:25.878Z,8.80
2023-04-01T23:53:11.363Z,9.00
2023-04-01T23:55:42.398Z,9.00
2023-04-01T23:58:56.482Z,8.90
